Time;durP1;ratioP1;P1;durP2;ratioP2;P2;SDS_P1;SDS_P2;PMS_P1;PMS_P2;Temp;Humidity;BMP_temperature;BMP_pressure;BME280_temperature;BME280_humidity;BME280_pressure;Samples;Min_cycle;Max_cycle;Signal;HPM_P1;HPM_P2
2023/05/17 00:00:52;;;;;;;14.13;10.02;;;;;;;;;;5049584;28;20049;-83
2023/05/17 00:03:18;;;;;;;17.95;10.25;;;;;;;;;;5043804;28;20033;-84
2023/05/17 00:05:43;;;;;;;16.30;10.07;;;;;;;;;;5038528;28;20548;-84
2023/05/17 00:08:09;;;;;;;14.65;9.98;;;;;;;;;;5055805;28;20028;-85
2023/05/17 00:10:34;;;;;;;14.95;10.52;;;;;;;;;;5052012;28;20068;-83
2023/05/17 00:13:00;;;;;;;15.05;10.32;;;;;;;;;;5048906;28;20059;-83
2023/05/17 00:15:25;;;;;;;15.80;10.15;;;;;;;;;;5044892;28;20104;-83
2023/05/17 00:17:50;;;;;;;15.75;10.27;;;;;;;;;;5029636;28;20500;-83
2023/05/17 00:20:16;;;;;;;17.52;10.52;;;;;;;;;;5057124;28;20056;-84
2023/05/17 00:22:44;;;;;;;17.83;10.70;;;;;;;;;;5052172;28;20028;-84
2023/05/17 00:25:09;;;;;;;14.52;10.13;;;;;;;;;;5048609;28;20037;-84
2023/05/17 00:27:35;;;;;;;14.68;10.07;;;;;;;;;;5027642;28;20021;-84
2023/05/17 00:30:01;;;;;;;16.15;10.82;;;;;;;;;;5023082;28;20025;-83
2023/05/17 00:32:26;;;;;;;15.27;10.45;;;;;;;;;;5023152;28;20033;-83
2023/05/17 00:34:51;;;;;;;14.13;9.63;;;;;;;;;;5039738;28;20391;-83
2023/05/17 00:37:17;;;;;;;15.27;10.27;;;;;;;;;;5037671;28;20123;-84
2023/05/17 00:39:42;;;;;;;16.95;11.05;;;;;;;;;;5037688;28;20033;-84
2023/05/17 00:42:09;;;;;;;16.88;11.15;;;;;;;;;;5019940;28;20482;-84
2023/05/17 00:44:35;;;;;;;15.15;10.05;;;;;;;;;;5036718;28;20029;-85
2023/05/17 00:47:01;;;;;;;15.95;10.60;;;;;;;;;;5035940;28;20036;-83
2023/05/17 00:49:27;;;;;;;15.45;10.38;;;;;;;;;;5037325;28;20030;-83
2023/05/17 00:51:53;;;;;;;15.60;10.23;;;;;;;;;;5026771;28;20049;-84
2023/05/17 00:54:19;;;;;;;13.73;9.73;;;;;;;;;;5022420;28;20116;-84
2023/05/17 00:56:45;;;;;;;14.48;9.48;;;;;;;;;;5026208;28;20041;-84
2023/05/17 00:59:12;;;;;;;16.08;9.68;;;;;;;;;;5057533;28;20117;-84
2023/05/17 01:01:41;;;;;;;14.15;9.93;;;;;;;;;;5054923;28;20078;-84
2023/05/17 01:04:08;;;;;;;15.68;9.88;;;;;;;;;;5033431;28;20037;-84
2023/05/17 01:06:35;;;;;;;15.50;9.50;;;;;;;;;;5013645;28;20041;-84
2023/05/17 01:09:00;;;;;;;16.65;9.40;;;;;;;;;;5046490;28;20068;-85
2023/05/17 01:11:35;;;;;;;13.95;9.40;;;;;;;;;;5023104;28;20033;-85
2023/05/17 01:14:13;;;;;;;15.93;8.82;;;;;;;;;;5020274;28;20498;-84
2023/05/17 01:16:47;;;;;;;13.55;8.50;;;;;;;;;;5020818;28;20132;-85
2023/05/17 01:19:18;;;;;;;12.68;8.77;;;;;;;;;;5020296;28;20095;-86
2023/05/17 01:22:05;;;;;;;17.73;9.00;;;;;;;;;;4994963;28;20113;-83
2023/05/17 01:24:51;;;;;;;13.55;8.50;;;;;;;;;;5004167;28;20034;-83
2023/05/17 01:27:19;;;;;;;12.88;8.63;;;;;;;;;;5035902;28;20099;-83
2023/05/17 01:29:48;;;;;;;12.38;8.90;;;;;;;;;;5012935;28;20042;-83
2023/05/17 01:32:16;;;;;;;14.18;9.13;;;;;;;;;;5002125;28;20033;-83
2023/05/17 01:34:42;;;;;;;12.65;8.48;;;;;;;;;;5017909;28;20029;-83
2023/05/17 01:37:07;;;;;;;14.13;8.98;;;;;;;;;;5035606;28;20033;-83
2023/05/17 01:39:35;;;;;;;14.00;8.82;;;;;;;;;;5032444;28;20037;-84
2023/05/17 01:42:10;;;;;;;13.85;8.77;;;;;;;;;;4997294;28;20052;-85
2023/05/17 01:44:44;;;;;;;14.70;9.32;;;;;;;;;;5034937;28;20390;-85
2023/05/17 01:47:27;;;;;;;15.90;8.85;;;;;;;;;;5043055;28;20036;-85
2023/05/17 01:49:54;;;;;;;12.90;8.43;;;;;;;;;;5038493;28;20491;-85
2023/05/17 01:52:52;;;;;;;14.15;8.48;;;;;;;;;;5036816;28;20479;-85
2023/05/17 01:55:17;;;;;;;14.00;8.57;;;;;;;;;;4997493;28;20050;-85
2023/05/17 01:57:46;;;;;;;12.98;8.27;;;;;;;;;;5017392;28;20029;-85
2023/05/17 02:00:13;;;;;;;13.45;8.70;;;;;;;;;;5034907;28;20036;-83
2023/05/17 02:02:42;;;;;;;13.70;8.70;;;;;;;;;;5017889;28;20029;-82
2023/05/17 02:05:07;;;;;;;12.35;7.93;;;;;;;;;;5017331;28;20029;-83
2023/05/17 02:07:33;;;;;;;11.00;8.15;;;;;;;;;;5052477;28;20033;-83
2023/05/17 02:09:58;;;;;;;13.38;8.65;;;;;;;;;;5030520;28;20029;-83
2023/05/17 02:12:24;;;;;;;13.40;8.50;;;;;;;;;;5027650;28;20057;-86
2023/05/17 02:14:49;;;;;;;12.57;7.75;;;;;;;;;;5022656;28;20135;-85
2023/05/17 02:17:16;;;;;;;11.45;7.35;;;;;;;;;;5018422;28;20037;-85
2023/05/17 02:19:42;;;;;;;9.10;7.15;;;;;;;;;;5016929;28;20026;-83
2023/05/17 02:22:08;;;;;;;12.48;7.53;;;;;;;;;;5028041;28;20033;-81
2023/05/17 02:24:33;;;;;;;14.35;8.20;;;;;;;;;;5027416;28;20037;-84
2023/05/17 02:26:58;;;;;;;11.98;7.55;;;;;;;;;;5024391;28;20026;-83
2023/05/17 02:29:24;;;;;;;9.38;7.22;;;;;;;;;;5020096;28;20096;-84
2023/05/17 02:31:51;;;;;;;12.60;6.68;;;;;;;;;;5033325;28;20064;-84
2023/05/17 02:34:16;;;;;;;12.23;7.88;;;;;;;;;;5034074;28;20025;-85
2023/05/17 02:36:43;;;;;;;11.73;8.43;;;;;;;;;;5016697;28;20542;-83
2023/05/17 02:39:11;;;;;;;12.48;7.65;;;;;;;;;;5034292;28;20026;-83
2023/05/17 02:41:37;;;;;;;13.07;7.82;;;;;;;;;;5034707;28;20383;-83
2023/05/17 02:44:02;;;;;;;13.18;8.55;;;;;;;;;;5025253;28;20037;-83
2023/05/17 02:46:28;;;;;;;9.10;6.32;;;;;;;;;;5050828;28;20028;-83
2023/05/17 02:48:53;;;;;;;12.48;7.20;;;;;;;;;;5046461;28;20112;-85
2023/05/17 02:51:19;;;;;;;11.10;7.50;;;;;;;;;;5024239;28;20036;-84
2023/05/17 02:53:44;;;;;;;11.68;7.55;;;;;;;;;;5003940;28;20041;-85
2023/05/17 02:56:10;;;;;;;12.20;6.97;;;;;;;;;;5032815;28;20118;-83
2023/05/17 02:58:37;;;;;;;11.60;7.40;;;;;;;;;;5016797;28;20137;-83
2023/05/17 03:01:03;;;;;;;11.60;7.40;;;;;;;;;;5015979;28;20151;-83
2023/05/17 03:03:30;;;;;;;9.75;7.10;;;;;;;;;;5016208;28;20025;-83
2023/05/17 03:06:00;;;;;;;12.32;7.05;;;;;;;;;;5021385;28;20172;-84
2023/05/17 03:08:26;;;;;;;10.63;6.47;;;;;;;;;;5017836;28;20025;-83
2023/05/17 03:10:52;;;;;;;11.85;7.05;;;;;;;;;;5016104;28;20087;-85
2023/05/17 03:13:18;;;;;;;12.98;6.82;;;;;;;;;;5026249;28;20032;-86
2023/05/17 03:15:44;;;;;;;13.02;6.63;;;;;;;;;;5026105;28;20022;-82
2023/05/17 03:18:10;;;;;;;11.05;6.53;;;;;;;;;;5022272;28;20026;-83
2023/05/17 03:20:37;;;;;;;11.38;6.80;;;;;;;;;;5018727;28;20037;-83
2023/05/17 03:23:03;;;;;;;11.13;6.47;;;;;;;;;;5033936;28;20029;-83
2023/05/17 03:25:28;;;;;;;11.57;6.72;;;;;;;;;;5016402;28;20092;-85
2023/05/17 03:27:55;;;;;;;11.43;6.30;;;;;;;;;;5023938;28;20045;-84
2023/05/17 03:30:20;;;;;;;9.85;5.93;;;;;;;;;;5025719;28;20061;-85
2023/05/17 03:32:46;;;;;;;9.40;6.43;;;;;;;;;;5032735;28;20394;-83
2023/05/17 03:35:12;;;;;;;9.27;6.00;;;;;;;;;;5024057;28;20028;-83
2023/05/17 03:37:41;;;;;;;10.13;6.38;;;;;;;;;;5031665;28;20061;-83
2023/05/17 03:40:07;;;;;;;10.48;5.63;;;;;;;;;;5026224;28;20075;-82
2023/05/17 03:42:33;;;;;;;12.32;6.05;;;;;;;;;;5022848;28;20036;-83
2023/05/17 03:44:59;;;;;;;12.55;6.60;;;;;;;;;;5002700;28;20029;-84
2023/05/17 03:47:24;;;;;;;13.73;6.38;;;;;;;;;;5019866;28;20125;-84
2023/05/17 03:49:50;;;;;;;10.48;6.00;;;;;;;;;;5048623;28;20440;-85
2023/05/17 03:52:16;;;;;;;11.18;6.07;;;;;;;;;;5027044;28;20026;-82
2023/05/17 03:54:42;;;;;;;14.82;6.80;;;;;;;;;;5023232;28;20025;-82
2023/05/17 03:57:07;;;;;;;15.00;6.63;;;;;;;;;;5020004;28;20040;-82
2023/05/17 03:59:34;;;;;;;13.13;6.75;;;;;;;;;;5032226;28;20029;-82
2023/05/17 04:02:00;;;;;;;16.60;7.43;;;;;;;;;;5015936;28;20041;-83
2023/05/17 04:04:27;;;;;;;15.65;8.07;;;;;;;;;;5014830;28;20040;-85
2023/05/17 04:06:52;;;;;;;13.18;7.70;;;;;;;;;;4998355;28;20594;-84
2023/05/17 04:09:18;;;;;;;13.73;7.75;;;;;;;;;;5031686;28;20029;-82
2023/05/17 04:11:44;;;;;;;15.52;7.53;;;;;;;;;;5017539;28;20479;-82
2023/05/17 04:14:10;;;;;;;15.73;8.07;;;;;;;;;;5017850;28;20033;-82
2023/05/17 04:16:36;;;;;;;12.82;7.47;;;;;;;;;;5018392;28;20040;-83
2023/05/17 04:19:02;;;;;;;12.57;6.85;;;;;;;;;;5025752;28;20079;-84
2023/05/17 04:21:28;;;;;;;13.30;7.50;;;;;;;;;;5018448;28;20067;-84
2023/05/17 04:23:55;;;;;;;15.18;7.93;;;;;;;;;;5000658;28;20487;-85
2023/05/17 04:26:20;;;;;;;12.80;7.63;;;;;;;;;;5018072;28;20072;-86
2023/05/17 04:28:47;;;;;;;13.25;7.53;;;;;;;;;;5017397;28;20044;-82
2023/05/17 04:31:15;;;;;;;10.57;6.97;;;;;;;;;;5026562;28;20033;-84
2023/05/17 04:33:41;;;;;;;12.40;7.65;;;;;;;;;;5039916;28;20037;-82
2023/05/17 04:36:07;;;;;;;11.90;8.07;;;;;;;;;;5033995;28;20053;-82
2023/05/17 04:38:34;;;;;;;10.73;7.25;;;;;;;;;;5029839;28;20060;-83
2023/05/17 04:41:04;;;;;;;12.15;7.03;;;;;;;;;;5033446;28;20650;-84
2023/05/17 04:43:31;;;;;;;14.80;6.15;;;;;;;;;;5026979;28;20057;-85
2023/05/17 04:45:59;;;;;;;11.73;6.20;;;;;;;;;;5008716;28;20020;-84
2023/05/17 04:48:26;;;;;;;10.25;6.50;;;;;;;;;;5033236;28;20434;-83
2023/05/17 04:50:55;;;;;;;11.68;7.20;;;;;;;;;;5019728;28;20464;-84
2023/05/17 04:53:20;;;;;;;10.77;6.93;;;;;;;;;;5019422;28;20029;-82
2023/05/17 04:55:47;;;;;;;10.55;7.45;;;;;;;;;;5019233;28;20182;-83
2023/05/17 04:58:15;;;;;;;12.52;8.10;;;;;;;;;;5025206;28;20036;-82
2023/05/17 05:00:43;;;;;;;14.63;8.32;;;;;;;;;;5034723;28;20159;-83
2023/05/17 05:03:09;;;;;;;13.65;7.97;;;;;;;;;;5020257;28;20044;-85
2023/05/17 05:05:35;;;;;;;12.20;7.25;;;;;;;;;;5037986;28;20044;-85
2023/05/17 05:08:01;;;;;;;15.32;8.02;;;;;;;;;;5016912;28;20055;-83
2023/05/17 05:10:27;;;;;;;13.82;7.70;;;;;;;;;;5031192;28;20302;-83
2023/05/17 05:12:53;;;;;;;9.60;7.78;;;;;;;;;;5027976;28;20040;-85
2023/05/17 05:15:19;;;;;;;13.55;7.22;;;;;;;;;;5024166;28;20052;-83
2023/05/17 05:17:51;;;;;;;14.05;7.75;;;;;;;;;;5019311;28;20045;-84
2023/05/17 05:20:18;;;;;;;12.50;8.00;;;;;;;;;;5035730;28;20446;-84
2023/05/17 05:22:43;;;;;;;11.25;6.95;;;;;;;;;;5029114;28;20546;-85
2023/05/17 05:25:11;;;;;;;8.45;6.05;;;;;;;;;;5027282;28;20025;-85
2023/05/17 05:27:37;;;;;;;9.40;6.20;;;;;;;;;;5019250;28;20040;-84
2023/05/17 05:30:03;;;;;;;9.07;6.43;;;;;;;;;;5020179;28;20029;-84
2023/05/17 05:32:29;;;;;;;9.55;6.75;;;;;;;;;;5020249;28;20028;-84
2023/05/17 05:34:55;;;;;;;11.02;6.38;;;;;;;;;;5029262;28;20017;-85
2023/05/17 05:37:21;;;;;;;9.95;6.60;;;;;;;;;;5019285;28;20060;-84
2023/05/17 05:39:47;;;;;;;10.20;5.70;;;;;;;;;;5028146;28;20044;-84
2023/05/17 05:42:12;;;;;;;11.27;6.03;;;;;;;;;;5013226;28;20128;-86
2023/05/17 05:44:38;;;;;;;10.07;6.28;;;;;;;;;;5033207;28;20044;-83
2023/05/17 05:47:04;;;;;;;10.90;6.28;;;;;;;;;;5033839;28;20048;-83
2023/05/17 05:49:29;;;;;;;9.50;6.20;;;;;;;;;;5026102;28;20459;-82
2023/05/17 05:51:55;;;;;;;9.80;5.82;;;;;;;;;;5041201;28;20036;-84
2023/05/17 05:54:21;;;;;;;8.88;5.68;;;;;;;;;;5020947;28;20044;-85
2023/05/17 05:56:46;;;;;;;8.23;5.75;;;;;;;;;;5034684;28;20029;-84
2023/05/17 05:59:14;;;;;;;11.45;6.20;;;;;;;;;;5051076;28;20028;-84
2023/05/17 06:01:40;;;;;;;8.50;5.90;;;;;;;;;;5047722;28;20041;-84
2023/05/17 06:04:05;;;;;;;10.60;6.00;;;;;;;;;;5025620;28;20099;-82
2023/05/17 06:06:31;;;;;;;7.05;5.53;;;;;;;;;;5023547;28;20033;-84
2023/05/17 06:08:56;;;;;;;9.68;5.40;;;;;;;;;;5020008;28;20118;-81
2023/05/17 06:11:24;;;;;;;12.38;5.70;;;;;;;;;;5036926;28;20033;-82
2023/05/17 06:13:50;;;;;;;12.43;6.40;;;;;;;;;;5028770;28;20558;-83
2023/05/17 06:16:15;;;;;;;10.23;6.43;;;;;;;;;;5044162;28;20044;-84
2023/05/17 06:18:41;;;;;;;9.75;6.38;;;;;;;;;;5021728;28;20061;-84
2023/05/17 06:21:06;;;;;;;15.25;7.10;;;;;;;;;;5016426;28;20038;-83
2023/05/17 06:23:32;;;;;;;9.45;5.70;;;;;;;;;;5035122;28;20033;-86
2023/05/17 06:25:57;;;;;;;9.68;5.45;;;;;;;;;;5048370;28;20056;-81
2023/05/17 06:28:23;;;;;;;9.90;6.10;;;;;;;;;;5023864;28;20031;-83
2023/05/17 06:30:48;;;;;;;9.15;5.32;;;;;;;;;;5036330;28;20042;-82
2023/05/17 06:33:14;;;;;;;7.22;5.60;;;;;;;;;;5038499;28;20068;-84
2023/05/17 06:35:39;;;;;;;8.98;5.20;;;;;;;;;;5052216;28;20037;-83
2023/05/17 06:38:05;;;;;;;8.68;5.78;;;;;;;;;;5004826;28;20465;-81
2023/05/17 06:40:30;;;;;;;12.80;5.28;;;;;;;;;;5007143;28;20103;-81
2023/05/17 06:42:56;;;;;;;9.20;4.95;;;;;;;;;;5038385;28;20033;-81
2023/05/17 06:45:21;;;;;;;11.85;5.50;;;;;;;;;;5020314;28;20033;-81
2023/05/17 06:47:47;;;;;;;8.15;5.65;;;;;;;;;;5026379;28;20104;-82
2023/05/17 06:50:12;;;;;;;10.75;5.90;;;;;;;;;;5012572;28;20429;-82
2023/05/17 06:52:38;;;;;;;11.43;5.82;;;;;;;;;;5041061;28;20033;-81
2023/05/17 06:55:04;;;;;;;7.78;5.18;;;;;;;;;;5038321;28;20545;-81
2023/05/17 06:57:30;;;;;;;9.75;5.60;;;;;;;;;;5036989;28;20059;-82
2023/05/17 06:59:55;;;;;;;10.02;5.53;;;;;;;;;;5020309;28;20033;-81
2023/05/17 07:02:21;;;;;;;9.80;4.80;;;;;;;;;;5048321;28;20040;-81
2023/05/17 07:04:47;;;;;;;9.52;5.15;;;;;;;;;;5026347;28;20038;-81
2023/05/17 07:07:12;;;;;;;11.20;5.32;;;;;;;;;;5040041;28;20662;-82
2023/05/17 07:09:38;;;;;;;11.07;5.47;;;;;;;;;;5028856;28;20033;-81
2023/05/17 07:12:04;;;;;;;12.57;6.20;;;;;;;;;;5010756;28;20029;-83
2023/05/17 07:14:30;;;;;;;9.98;5.35;;;;;;;;;;5018546;28;20136;-81
2023/05/17 07:16:56;;;;;;;9.40;5.20;;;;;;;;;;5018132;28;20159;-81
2023/05/17 07:19:22;;;;;;;8.18;5.38;;;;;;;;;;5022788;28;20037;-84
2023/05/17 07:21:47;;;;;;;10.77;6.05;;;;;;;;;;5034686;28;20103;-87
2023/05/17 07:24:13;;;;;;;7.32;5.45;;;;;;;;;;5034429;28;20040;-82
2023/05/17 07:26:38;;;;;;;9.00;5.80;;;;;;;;;;5040776;28;20030;-82
2023/05/17 07:29:04;;;;;;;9.15;5.18;;;;;;;;;;5029564;28;20029;-82
2023/05/17 07:31:29;;;;;;;8.45;5.00;;;;;;;;;;5032229;28;20500;-81
2023/05/17 07:33:55;;;;;;;7.88;4.90;;;;;;;;;;5037513;28;20117;-81
2023/05/17 07:36:20;;;;;;;11.50;5.10;;;;;;;;;;5030199;28;20032;-85
2023/05/17 07:38:46;;;;;;;7.95;4.90;;;;;;;;;;5008188;28;20127;-84
2023/05/17 07:41:13;;;;;;;8.68;4.82;;;;;;;;;;5027050;28;20044;-84
2023/05/17 07:43:39;;;;;;;8.52;5.10;;;;;;;;;;5037010;28;20025;-83
2023/05/17 07:46:04;;;;;;;7.57;4.80;;;;;;;;;;5024451;28;20037;-85
2023/05/17 07:48:30;;;;;;;8.07;4.82;;;;;;;;;;5039053;28;20026;-82
2023/05/17 07:50:56;;;;;;;11.38;5.40;;;;;;;;;;5030167;28;20026;-83
2023/05/17 07:53:21;;;;;;;9.88;5.07;;;;;;;;;;5016033;28;20079;-83
2023/05/17 07:55:47;;;;;;;7.15;5.00;;;;;;;;;;5034241;28;20044;-83
2023/05/17 07:58:12;;;;;;;7.78;5.03;;;;;;;;;;5016162;28;20037;-85
2023/05/17 08:00:38;;;;;;;10.27;5.20;;;;;;;;;;5021399;28;20037;-85
2023/05/17 08:03:03;;;;;;;8.60;4.60;;;;;;;;;;5035447;28;20452;-83
2023/05/17 08:05:29;;;;;;;7.85;4.30;;;;;;;;;;5018034;28;20049;-83
2023/05/17 08:07:58;;;;;;;8.50;4.40;;;;;;;;;;5016682;28;20475;-82
2023/05/17 08:10:23;;;;;;;9.70;4.53;;;;;;;;;;5009927;28;20306;-83
2023/05/17 08:12:49;;;;;;;6.20;4.00;;;;;;;;;;5003713;28;20514;-83
2023/05/17 08:15:14;;;;;;;10.55;4.20;;;;;;;;;;5023233;28;20126;-83
2023/05/17 08:17:40;;;;;;;10.27;4.53;;;;;;;;;;5052160;28;20495;-83
2023/05/17 08:20:06;;;;;;;8.85;4.35;;;;;;;;;;5048825;28;20112;-84
2023/05/17 08:22:32;;;;;;;10.23;4.70;;;;;;;;;;5025754;28;20036;-84
2023/05/17 08:24:57;;;;;;;8.50;4.32;;;;;;;;;;5039145;28;20098;-85
2023/05/17 08:27:24;;;;;;;8.02;5.13;;;;;;;;;;5034781;28;20037;-82
2023/05/17 08:29:50;;;;;;;9.23;4.30;;;;;;;;;;5016406;28;20363;-83
2023/05/17 08:32:16;;;;;;;9.40;4.20;;;;;;;;;;5033384;28;20040;-85
2023/05/17 08:34:41;;;;;;;6.38;3.83;;;;;;;;;;5034195;28;20029;-83
2023/05/17 08:37:07;;;;;;;8.82;4.00;;;;;;;;;;5016396;28;20391;-84
2023/05/17 08:39:32;;;;;;;7.00;4.10;;;;;;;;;;5035646;28;20037;-84
2023/05/17 08:42:00;;;;;;;9.18;3.83;;;;;;;;;;5007781;28;20037;-84
2023/05/17 08:44:27;;;;;;;6.88;4.20;;;;;;;;;;5049583;28;20039;-84
2023/05/17 08:46:55;;;;;;;7.65;4.32;;;;;;;;;;5028797;28;20039;-84
2023/05/17 08:49:26;;;;;;;10.77;4.30;;;;;;;;;;5039822;28;20025;-84
2023/05/17 08:51:58;;;;;;;7.18;4.25;;;;;;;;;;5021026;28;20116;-84
2023/05/17 08:54:23;;;;;;;10.35;3.88;;;;;;;;;;5017590;28;20721;-84
2023/05/17 08:56:52;;;;;;;11.75;4.72;;;;;;;;;;5045476;28;20026;-82
2023/05/17 08:59:18;;;;;;;10.88;3.45;;;;;;;;;;5011873;28;20041;-85
2023/05/17 09:01:48;;;;;;;5.57;3.80;;;;;;;;;;5043019;28;20044;-85
2023/05/17 09:04:15;;;;;;;7.78;4.22;;;;;;;;;;5023299;28;20505;-84
2023/05/17 09:06:42;;;;;;;9.55;3.92;;;;;;;;;;5039352;28;20032;-85
2023/05/17 09:09:08;;;;;;;6.60;4.15;;;;;;;;;;5024570;28;20052;-84
2023/05/17 09:11:34;;;;;;;8.48;3.88;;;;;;;;;;5037494;28;20124;-84
2023/05/17 09:14:04;;;;;;;6.32;3.35;;;;;;;;;;5018917;28;20445;-85
2023/05/17 09:16:32;;;;;;;8.02;3.80;;;;;;;;;;5014339;28;20044;-85
2023/05/17 09:18:58;;;;;;;7.20;4.03;;;;;;;;;;5030233;28;20024;-85
2023/05/17 09:21:26;;;;;;;10.07;3.83;;;;;;;;;;5036864;28;20033;-85
2023/05/17 09:23:52;;;;;;;7.65;3.88;;;;;;;;;;5016120;28;20541;-84
2023/05/17 09:26:18;;;;;;;6.93;4.03;;;;;;;;;;5033408;28;20091;-84
2023/05/17 09:28:44;;;;;;;6.95;3.72;;;;;;;;;;5034156;28;20026;-84
2023/05/17 09:31:13;;;;;;;8.35;3.70;;;;;;;;;;5037548;28;20024;-85
2023/05/17 09:33:46;;;;;;;8.68;3.70;;;;;;;;;;5017740;28;20087;-85
2023/05/17 09:36:17;;;;;;;9.63;4.97;;;;;;;;;;5034514;28;20037;-85
2023/05/17 09:38:51;;;;;;;10.48;4.43;;;;;;;;;;5035852;28;20029;-85
2023/05/17 09:41:17;;;;;;;8.35;3.83;;;;;;;;;;5035364;28;20140;-85
2023/05/17 09:43:42;;;;;;;6.80;3.42;;;;;;;;;;5036513;28;20493;-85
2023/05/17 09:46:08;;;;;;;6.20;3.30;;;;;;;;;;5033700;28;20094;-84
2023/05/17 09:48:37;;;;;;;5.28;3.47;;;;;;;;;;5028971;28;20078;-85
2023/05/17 09:51:04;;;;;;;5.47;3.70;;;;;;;;;;5025914;28;20039;-84
2023/05/17 09:53:38;;;;;;;8.77;3.70;;;;;;;;;;5039899;28;20034;-84
2023/05/17 09:56:05;;;;;;;6.15;3.78;;;;;;;;;;5035967;28;20041;-83
2023/05/17 09:58:32;;;;;;;6.88;3.70;;;;;;;;;;5033998;28;20033;-84
2023/05/17 10:01:03;;;;;;;6.55;3.63;;;;;;;;;;5034181;28;20037;-84
2023/05/17 10:03:34;;;;;;;9.35;3.40;;;;;;;;;;5033930;28;20554;-85
2023/05/17 10:06:04;;;;;;;6.00;3.20;;;;;;;;;;5020302;28;20034;-85
2023/05/17 10:08:31;;;;;;;5.82;3.25;;;;;;;;;;5035148;28;20553;-85
2023/05/17 10:11:20;;;;;;;5.53;2.90;;;;;;;;;;5027271;28;20057;-85
2023/05/17 10:14:00;;;;;;;6.05;3.00;;;;;;;;;;5045646;28;20032;-85
2023/05/17 10:16:27;;;;;;;5.82;2.92;;;;;;;;;;5044287;28;20044;-84
2023/05/17 10:18:53;;;;;;;5.32;2.90;;;;;;;;;;5042864;28;20447;-84
2023/05/17 10:21:18;;;;;;;7.90;3.28;;;;;;;;;;5038125;28;20037;-85
2023/05/17 10:23:46;;;;;;;22.27;8.35;;;;;;;;;;5016303;28;20037;-85
2023/05/17 10:26:13;;;;;;;9.32;4.05;;;;;;;;;;5014094;28;20033;-85
2023/05/17 10:28:39;;;;;;;5.35;3.13;;;;;;;;;;5053138;28;20032;-85
2023/05/17 10:31:05;;;;;;;7.63;3.17;;;;;;;;;;5049339;28;20064;-85
2023/05/17 10:33:31;;;;;;;7.38;3.20;;;;;;;;;;5027557;28;20037;-84
2023/05/17 10:35:58;;;;;;;7.07;3.10;;;;;;;;;;5043580;28;20026;-85
2023/05/17 10:38:26;;;;;;;4.70;2.70;;;;;;;;;;5021571;28;20041;-85
2023/05/17 10:40:52;;;;;;;5.47;2.88;;;;;;;;;;5036967;28;20034;-85
2023/05/17 10:43:19;;;;;;;6.80;3.15;;;;;;;;;;5031272;28;20065;-86
2023/05/17 10:45:45;;;;;;;7.47;3.40;;;;;;;;;;5035606;28;20055;-86
2023/05/17 10:48:14;;;;;;;5.05;2.92;;;;;;;;;;5034884;28;20060;-86
2023/05/17 10:50:39;;;;;;;5.95;2.58;;;;;;;;;;5016847;28;20033;-86
2023/05/17 10:53:10;;;;;;;5.20;3.00;;;;;;;;;;5035407;28;20095;-86
2023/05/17 10:55:38;;;;;;;6.35;2.90;;;;;;;;;;5016102;28;20518;-87
2023/05/17 10:58:09;;;;;;;5.88;2.75;;;;;;;;;;5040137;28;20487;-86
2023/05/17 11:00:43;;;;;;;9.63;3.60;;;;;;;;;;5054978;28;20076;-89
2023/05/17 11:03:16;;;;;;;7.93;3.15;;;;;;;;;;5030744;28;20033;-85
2023/05/17 11:06:02;;;;;;;28.00;14.80;;;;;;;;;;5038868;28;20068;-84
2023/05/17 11:08:28;;;;;;;13.40;7.93;;;;;;;;;;5035288;28;20087;-84
2023/05/17 11:11:11;;;;;;;9.60;4.65;;;;;;;;;;5035575;28;20109;-85
2023/05/17 11:13:55;;;;;;;10.63;5.47;;;;;;;;;;5033324;28;20056;-84
2023/05/17 11:16:26;;;;;;;14.48;6.65;;;;;;;;;;5030923;28;20048;-85
2023/05/17 11:18:53;;;;;;;6.28;3.00;;;;;;;;;;5028313;28;20146;-84
2023/05/17 11:21:21;;;;;;;7.03;4.25;;;;;;;;;;5029240;28;20045;-84
2023/05/17 11:23:52;;;;;;;16.17;8.90;;;;;;;;;;5014242;28;20420;-84
2023/05/17 11:26:25;;;;;;;8.80;3.75;;;;;;;;;;5031627;28;20413;-84
2023/05/17 11:29:11;;;;;;;6.85;3.92;;;;;;;;;;5017006;28;20029;-84
2023/05/17 11:31:43;;;;;;;5.55;3.28;;;;;;;;;;5044656;28;20037;-84
2023/05/17 11:34:10;;;;;;;5.63;2.88;;;;;;;;;;5036933;28;20037;-84
2023/05/17 11:36:53;;;;;;;18.05;13.25;;;;;;;;;;5032879;28;20041;-84
2023/05/17 11:39:22;;;;;;;6.57;3.10;;;;;;;;;;5016678;28;20033;-84
2023/05/17 11:41:50;;;;;;;11.60;4.10;;;;;;;;;;5033615;28;20065;-84
2023/05/17 11:44:24;;;;;;;7.72;2.90;;;;;;;;;;5013747;28;20036;-84
2023/05/17 11:46:50;;;;;;;5.50;3.03;;;;;;;;;;5016472;28;20033;-84
2023/05/17 11:49:15;;;;;;;7.70;3.10;;;;;;;;;;5049708;28;20045;-84
2023/05/17 11:51:41;;;;;;;6.45;2.90;;;;;;;;;;5028113;28;20513;-84
2023/05/17 11:54:08;;;;;;;7.55;2.80;;;;;;;;;;5011466;28;20132;-84
2023/05/17 11:56:38;;;;;;;8.95;5.47;;;;;;;;;;5023767;28;20094;-84
2023/05/17 11:59:04;;;;;;;4.22;2.40;;;;;;;;;;5019316;28;20695;-84
2023/05/17 12:01:46;;;;;;;10.02;4.35;;;;;;;;;;5018474;28;20053;-84
2023/05/17 12:04:12;;;;;;;6.03;4.43;;;;;;;;;;5016566;28;20617;-84
2023/05/17 12:06:38;;;;;;;9.52;7.18;;;;;;;;;;5032507;28;20042;-84
2023/05/17 12:09:09;;;;;;;4.30;2.58;;;;;;;;;;5036581;28;20025;-84
2023/05/17 12:11:35;;;;;;;4.85;2.40;;;;;;;;;;5028663;28;20034;-85
2023/05/17 12:14:01;;;;;;;4.78;2.25;;;;;;;;;;5024862;28;20036;-85
2023/05/17 12:16:28;;;;;;;4.40;2.38;;;;;;;;;;5007976;28;20119;-85
2023/05/17 12:18:55;;;;;;;2.35;1.90;;;;;;;;;;5037522;28;20594;-85
2023/05/17 12:21:21;;;;;;;3.28;2.10;;;;;;;;;;5033415;28;20543;-86
2023/05/17 12:23:50;;;;;;;5.07;2.22;;;;;;;;;;5045634;28;20126;-85
2023/05/17 12:26:18;;;;;;;4.38;2.17;;;;;;;;;;5036325;28;20124;-86
2023/05/17 12:29:03;;;;;;;6.07;2.30;;;;;;;;;;5035774;28;20445;-84
2023/05/17 12:31:38;;;;;;;4.47;2.20;;;;;;;;;;5042929;28;20037;-85
2023/05/17 12:34:05;;;;;;;6.70;2.35;;;;;;;;;;5004499;28;20509;-86
2023/05/17 12:36:32;;;;;;;4.50;2.30;;;;;;;;;;5045087;28;20044;-86
2023/05/17 12:38:58;;;;;;;5.30;1.80;;;;;;;;;;5042348;28;20056;-86
2023/05/17 12:41:25;;;;;;;3.65;2.10;;;;;;;;;;5038716;28;20041;-85
2023/05/17 12:43:51;;;;;;;2.78;1.80;;;;;;;;;;5010567;28;20384;-87
2023/05/17 12:46:20;;;;;;;4.60;1.70;;;;;;;;;;5047173;28;20040;-87
2023/05/17 12:48:48;;;;;;;7.38;2.55;;;;;;;;;;5035780;28;20567;-87
2023/05/17 12:51:20;;;;;;;5.07;2.88;;;;;;;;;;5041960;28;20037;-87
2023/05/17 12:53:50;;;;;;;3.00;2.22;;;;;;;;;;5033642;28;20032;-87
2023/05/17 12:56:18;;;;;;;3.13;2.00;;;;;;;;;;5041776;28;20037;-86
2023/05/17 12:59:03;;;;;;;3.13;2.30;;;;;;;;;;5047070;28;20041;-87
2023/05/17 13:01:54;;;;;;;5.55;2.38;;;;;;;;;;5047375;28;20392;-86
2023/05/17 13:04:26;;;;;;;5.78;2.00;;;;;;;;;;5043102;28;20048;-87
2023/05/17 13:06:53;;;;;;;5.35;1.95;;;;;;;;;;5037837;28;20053;-86
2023/05/17 13:09:20;;;;;;;4.95;2.45;;;;;;;;;;5038703;28;20056;-87
2023/05/17 13:11:54;;;;;;;4.13;2.05;;;;;;;;;;5035622;28;20045;-87
2023/05/17 13:14:39;;;;;;;3.92;2.25;;;;;;;;;;5033475;28;20095;-86
2023/05/17 13:17:09;;;;;;;4.10;2.40;;;;;;;;;;5046726;28;20045;-88
2023/05/17 13:19:35;;;;;;;3.28;2.08;;;;;;;;;;5025023;28;20072;-87
2023/05/17 13:22:05;;;;;;;4.97;2.10;;;;;;;;;;5038165;28;20025;-86
2023/05/17 13:24:33;;;;;;;4.93;2.08;;;;;;;;;;5036011;28;20406;-87
2023/05/17 13:26:59;;;;;;;5.18;1.98;;;;;;;;;;5036001;28;20125;-86
2023/05/17 13:29:25;;;;;;;4.93;2.40;;;;;;;;;;5032026;28;20470;-86
2023/05/17 13:31:50;;;;;;;2.47;1.80;;;;;;;;;;5035188;28;20610;-87
2023/05/17 13:34:19;;;;;;;4.47;2.00;;;;;;;;;;5036166;28;20029;-86
2023/05/17 13:36:45;;;;;;;5.63;2.00;;;;;;;;;;5038658;28;20036;-87
2023/05/17 13:39:11;;;;;;;3.28;2.10;;;;;;;;;;5040738;28;20124;-87
2023/05/17 13:41:37;;;;;;;3.60;2.08;;;;;;;;;;5037852;28;20518;-88
2023/05/17 13:44:03;;;;;;;3.10;1.90;;;;;;;;;;5048631;28;20029;-86
2023/05/17 13:46:29;;;;;;;4.95;2.10;;;;;;;;;;5051644;28;20049;-87
2023/05/17 13:48:54;;;;;;;4.28;1.85;;;;;;;;;;5046422;28;20029;-86
2023/05/17 13:51:20;;;;;;;2.80;1.70;;;;;;;;;;5027165;28;20375;-86
2023/05/17 13:53:45;;;;;;;3.45;1.90;;;;;;;;;;5042594;28;20033;-86
2023/05/17 13:56:11;;;;;;;3.55;1.70;;;;;;;;;;5029859;28;20129;-86
2023/05/17 13:58:36;;;;;;;2.70;1.58;;;;;;;;;;5041423;28;20522;-87
2023/05/17 14:01:02;;;;;;;2.65;1.52;;;;;;;;;;5035867;28;20136;-86
2023/05/17 14:03:27;;;;;;;3.00;1.50;;;;;;;;;;5049926;28;20091;-87
2023/05/17 14:05:53;;;;;;;4.43;1.90;;;;;;;;;;5045504;28;20095;-87
2023/05/17 14:08:19;;;;;;;3.97;1.70;;;;;;;;;;5045308;28;20039;-87
2023/05/17 14:10:45;;;;;;;3.75;1.70;;;;;;;;;;5022880;28;20526;-87
2023/05/17 14:13:11;;;;;;;2.90;1.70;;;;;;;;;;5037983;28;20037;-87
2023/05/17 14:15:38;;;;;;;2.95;1.70;;;;;;;;;;5035577;28;20044;-86
2023/05/17 14:18:05;;;;;;;3.75;1.88;;;;;;;;;;5034604;28;20041;-87
2023/05/17 14:20:31;;;;;;;4.93;1.60;;;;;;;;;;5034916;28;20045;-86
2023/05/17 14:22:56;;;;;;;5.07;1.90;;;;;;;;;;5016816;28;20195;-87
2023/05/17 14:25:22;;;;;;;3.85;1.90;;;;;;;;;;5039999;28;20029;-87
2023/05/17 14:27:47;;;;;;;3.55;1.70;;;;;;;;;;5021945;28;20162;-87
2023/05/17 14:30:13;;;;;;;3.63;1.90;;;;;;;;;;5019426;28;20086;-87
2023/05/17 14:32:39;;;;;;;2.85;1.65;;;;;;;;;;5025702;28;20049;-86
2023/05/17 14:35:06;;;;;;;3.70;1.90;;;;;;;;;;5032898;28;20071;-87
2023/05/17 14:37:32;;;;;;;4.88;2.05;;;;;;;;;;5049181;28;20048;-87